Time;durP1;ratioP1;P1;durP2;ratioP2;P2;SDS_P1;SDS_P2;PMS_P1;PMS_P2;Temp;Humidity;BMP_temperature;BMP_pressure;BME280_temperature;BME280_humidity;BME280_pressure;Samples;Min_cycle;Max_cycle;Signal;HPM_P1;HPM_P2
2023/12/23 00:01:29;;;;;;;0.35;0.20;;;;;;;4.21;100.00;96791.63;15291005;19;20471;-50
2023/12/23 00:07:00;;;;;;;0.70;0.30;;;;;;;4.22;100.00;96800.47;15292604;19;20018;-51
2023/12/23 00:12:28;;;;;;;2.25;0.50;;;;;;;4.23;100.00;96831.47;15296219;19;20014;-52
2023/12/23 00:17:53;;;;;;;0.93;0.40;;;;;;;4.23;100.00;96810.97;15299633;19;20042;-50
2023/12/23 00:23:19;;;;;;;0.68;0.30;;;;;;;4.16;100.00;96836.63;15288474;19;20026;-53
2023/12/23 00:28:46;;;;;;;3.25;0.40;;;;;;;3.83;100.00;96863.06;15298575;19;20024;-52
2023/12/23 00:34:11;;;;;;;1.02;0.40;;;;;;;3.55;100.00;96911.16;15292456;19;20032;-48
2023/12/23 00:39:35;;;;;;;1.58;0.43;;;;;;;3.24;100.00;96964.78;15296854;19;20042;-49
2023/12/23 00:45:03;;;;;;;1.15;0.30;;;;;;;2.92;100.00;96979.41;15297133;19;20492;-48
2023/12/23 00:50:27;;;;;;;1.95;0.20;;;;;;;2.77;100.00;97049.03;15295999;19;20014;-49
2023/12/23 00:55:52;;;;;;;2.70;0.30;;;;;;;2.59;100.00;97042.81;15294845;19;20015;-51
2023/12/23 01:01:19;;;;;;;1.05;0.20;;;;;;;2.46;100.00;97030.69;15293893;19;20023;-50
2023/12/23 01:06:50;;;;;;;1.23;0.30;;;;;;;2.39;100.00;97048.19;15286564;19;20073;-48
2023/12/23 01:12:15;;;;;;;1.48;0.40;;;;;;;2.32;100.00;97071.00;15287168;19;20024;-50
2023/12/23 01:17:42;;;;;;;1.38;0.40;;;;;;;2.25;100.00;97099.97;15296440;19;20082;-48
2023/12/23 01:23:07;;;;;;;1.98;0.57;;;;;;;2.17;100.00;97114.94;15292194;19;20363;-50
2023/12/23 01:28:31;;;;;;;1.35;0.40;;;;;;;2.12;100.00;97118.84;15291121;19;20522;-52
2023/12/23 01:33:59;;;;;;;2.15;0.50;;;;;;;2.11;100.00;97159.69;15293392;19;20081;-50
2023/12/23 01:39:23;;;;;;;1.90;0.45;;;;;;;2.14;100.00;97162.06;15290539;19;20022;-50
2023/12/23 01:44:48;;;;;;;1.63;0.40;;;;;;;2.18;100.00;97191.84;15291425;19;20029;-52
2023/12/23 01:50:18;;;;;;;2.47;0.52;;;;;;;2.25;100.00;97211.56;15291381;19;20038;-48
2023/12/23 01:55:43;;;;;;;2.13;0.43;;;;;;;2.19;100.00;97221.91;15287875;19;20011;-50
2023/12/23 02:01:08;;;;;;;1.70;0.70;;;;;;;2.15;100.00;97216.03;15290386;19;20025;-49
2023/12/23 02:06:42;;;;;;;1.50;0.40;;;;;;;2.17;100.00;97203.47;15290036;19;20090;-51
2023/12/23 02:12:15;;;;;;;1.20;0.40;;;;;;;2.20;100.00;97250.16;15289255;19;20015;-48
2023/12/23 02:17:39;;;;;;;1.45;0.40;;;;;;;2.21;100.00;97255.34;15289766;19;20018;-48
2023/12/23 02:23:07;;;;;;;1.92;0.50;;;;;;;2.23;100.00;97247.22;15287976;19;20089;-51
2023/12/23 02:28:33;;;;;;;2.13;0.50;;;;;;;2.24;100.00;97252.41;15292078;19;20038;-52
2023/12/23 02:33:59;;;;;;;1.10;0.40;;;;;;;2.27;100.00;97246.00;15290243;19;20355;-49
2023/12/23 02:39:27;;;;;;;1.10;0.47;;;;;;;2.32;100.00;97243.75;15030469;19;5001220;-50
2023/12/23 02:44:52;;;;;;;1.23;0.32;;;;;;;2.39;100.00;97258.19;15288690;19;20504;-49
2023/12/23 02:50:18;;;;;;;1.23;0.50;;;;;;;2.42;100.00;97244.59;15288027;19;20025;-51
2023/12/23 02:55:45;;;;;;;1.77;0.47;;;;;;;2.46;100.00;97261.13;15288756;19;20082;-50
2023/12/23 03:01:13;;;;;;;3.50;0.50;;;;;;;2.47;100.00;97268.09;15287391;19;20014;-53
2023/12/23 03:06:43;;;;;;;2.35;0.57;;;;;;;2.46;100.00;97271.75;15285134;19;20025;-48
2023/12/23 03:12:11;;;;;;;2.67;0.70;;;;;;;2.44;100.00;97271.88;15283250;19;20086;-49
2023/12/23 03:17:36;;;;;;;1.75;0.52;;;;;;;2.47;100.00;97290.22;15285570;19;20074;-49
2023/12/23 03:23:00;;;;;;;2.22;0.60;;;;;;;2.52;100.00;97296.94;15284771;19;20475;-49
2023/12/23 03:28:28;;;;;;;1.17;0.50;;;;;;;2.51;100.00;97289.94;15304263;19;20026;-54
2023/12/23 03:33:53;;;;;;;2.03;0.50;;;;;;;2.54;100.00;97274.56;15301324;19;20090;-55
2023/12/23 03:39:18;;;;;;;3.10;0.85;;;;;;;2.60;100.00;97263.34;15303197;19;20018;-54
2023/12/23 03:44:45;;;;;;;2.60;0.70;;;;;;;2.66;100.00;97266.44;15294411;19;20086;-48
2023/12/23 03:50:12;;;;;;;5.55;0.90;;;;;;;2.66;100.00;97255.81;15298010;19;20539;-48
2023/12/23 03:55:39;;;;;;;3.78;0.90;;;;;;;2.66;100.00;97258.47;15297761;19;20449;-50
2023/12/23 04:01:06;;;;;;;3.85;1.13;;;;;;;2.69;100.00;97261.66;15295837;19;20081;-48
2023/12/23 04:06:38;;;;;;;6.68;0.88;;;;;;;2.68;100.00;97248.53;15291092;19;20899;-49
2023/12/23 04:12:02;;;;;;;6.05;1.08;;;;;;;2.70;100.00;97249.22;15293070;19;20018;-50
2023/12/23 04:17:30;;;;;;;3.25;0.90;;;;;;;2.70;100.00;97236.75;15288236;19;20018;-51
2023/12/23 04:22:54;;;;;;;4.15;0.90;;;;;;;2.75;100.00;97254.94;15294406;19;20090;-50
2023/12/23 04:28:24;;;;;;;2.03;0.75;;;;;;;2.80;100.00;97251.88;15297272;19;20017;-50
2023/12/23 04:33:52;;;;;;;3.00;0.88;;;;;;;2.79;100.00;97237.75;15293741;19;20016;-50
2023/12/23 04:39:18;;;;;;;3.58;0.70;;;;;;;2.80;100.00;97233.25;15295423;19;20490;-53
2023/12/23 04:44:44;;;;;;;4.32;0.90;;;;;;;2.78;100.00;97233.41;15293025;19;20092;-53
2023/12/23 04:50:13;;;;;;;3.58;1.08;;;;;;;2.79;100.00;97248.38;15287799;19;20494;-50
2023/12/23 04:55:37;;;;;;;8.25;1.38;;;;;;;2.82;100.00;97260.56;15295424;19;20372;-51
2023/12/23 05:01:02;;;;;;;4.90;1.00;;;;;;;2.77;100.00;97275.09;15296440;19;20021;-50
2023/12/23 05:06:36;;;;;;;4.10;0.80;;;;;;;2.69;100.00;97267.00;15294412;19;20357;-48
2023/12/23 05:12:00;;;;;;;2.53;0.60;;;;;;;2.64;100.00;97273.72;14782490;19;10001187;-49
2023/12/23 05:17:25;;;;;;;3.00;0.70;;;;;;;2.62;100.00;97265.88;15294281;19;20027;-49
2023/12/23 05:22:52;;;;;;;5.78;0.93;;;;;;;2.60;100.00;97251.88;15289742;19;20085;-52
2023/12/23 05:28:17;;;;;;;4.93;0.93;;;;;;;2.57;100.00;97253.00;15294147;19;20046;-50
2023/12/23 05:33:42;;;;;;;4.53;0.85;;;;;;;2.55;100.00;97246.13;15290608;19;20017;-50
2023/12/23 05:39:10;;;;;;;4.32;0.90;;;;;;;2.50;100.00;97235.09;15293775;19;20018;-50
2023/12/23 05:44:35;;;;;;;2.80;0.70;;;;;;;2.43;100.00;97232.16;15291635;19;20482;-50
2023/12/23 05:50:00;;;;;;;4.70;1.00;;;;;;;2.38;100.00;97248.53;15289272;19;20105;-50
2023/12/23 05:55:27;;;;;;;2.58;0.65;;;;;;;2.34;100.00;97244.44;15284321;19;20901;-51
2023/12/23 06:00:52;;;;;;;2.95;0.63;;;;;;;2.28;100.00;97248.50;15291244;19;20019;-50
2023/12/23 06:06:16;;;;;;;3.28;0.82;;;;;;;2.25;100.00;97255.91;15288815;19;20017;-51
2023/12/23 06:11:44;;;;;;;4.30;0.90;;;;;;;2.21;100.00;97246.53;15284503;19;20025;-53
2023/12/23 06:17:09;;;;;;;5.28;0.90;;;;;;;2.20;100.00;97240.38;15289016;19;20010;-51
2023/12/23 06:22:34;;;;;;;3.30;0.70;;;;;;;2.21;100.00;97231.44;15287345;19;20758;-50
2023/12/23 06:28:01;;;;;;;3.88;0.98;;;;;;;2.27;100.00;97246.81;15286397;19;20106;-53
2023/12/23 06:33:26;;;;;;;2.42;0.77;;;;;;;2.36;100.00;97231.88;15286380;19;20010;-53
2023/12/23 06:38:51;;;;;;;3.42;0.80;;;;;;;2.46;100.00;97232.72;15286922;19;20015;-50
2023/12/23 06:44:19;;;;;;;2.05;0.45;;;;;;;2.56;100.00;97234.53;15287093;19;20015;-51
2023/12/23 06:49:43;;;;;;;2.00;0.80;;;;;;;2.62;100.00;97234.81;15287869;19;20026;-51
2023/12/23 06:55:08;;;;;;;2.13;0.47;;;;;;;2.68;100.00;97232.56;15288088;19;20038;-49
2023/12/23 07:00:35;;;;;;;1.15;0.40;;;;;;;2.71;100.00;97227.81;15283379;19;20017;-50
2023/12/23 07:06:00;;;;;;;0.63;0.40;;;;;;;2.72;100.00;97223.31;15285516;19;20081;-50
2023/12/23 07:11:24;;;;;;;1.55;0.40;;;;;;;2.72;100.00;97202.91;15283618;19;20014;-52
2023/12/23 07:16:52;;;;;;;1.48;0.50;;;;;;;2.71;100.00;97203.88;15283415;19;20027;-49
2023/12/23 07:22:16;;;;;;;1.80;0.43;;;;;;;2.68;100.00;97198.81;15282281;19;20018;-50
2023/12/23 07:27:41;;;;;;;2.88;0.47;;;;;;;2.65;100.00;97188.47;15280382;19;20029;-50
2023/12/23 07:33:09;;;;;;;0.93;0.38;;;;;;;2.63;100.00;97187.78;15270372;19;20014;-51
2023/12/23 07:38:34;;;;;;;2.22;0.47;;;;;;;2.62;100.00;97180.78;15282528;19;20020;-49
2023/12/23 07:44:05;;;;;;;0.52;0.35;;;;;;;2.59;100.00;97163.28;15284215;19;20082;-50
2023/12/23 07:49:32;;;;;;;1.42;0.43;;;;;;;2.56;100.00;97154.75;15286671;19;20408;-51
2023/12/23 07:54:58;;;;;;;0.52;0.50;;;;;;;2.54;100.00;97151.41;15282693;19;20477;-50
2023/12/23 08:00:24;;;;;;;0.93;0.40;;;;;;;2.49;100.00;97135.88;15280906;19;20018;-51
2023/12/23 08:05:59;;;;;;;0.85;0.43;;;;;;;2.41;100.00;97133.94;15276774;19;20013;-51
2023/12/23 08:11:23;;;;;;;1.05;0.30;;;;;;;2.37;100.00;97137.88;15286494;19;20357;-51
2023/12/23 08:16:48;;;;;;;0.20;0.20;;;;;;;2.33;100.00;97128.50;15297199;19;20022;-52
2023/12/23 08:22:15;;;;;;;0.20;0.20;;;;;;;2.27;100.00;97118.44;15290154;19;20465;-49
2023/12/23 08:27:40;;;;;;;0.55;0.30;;;;;;;2.21;100.00;97103.91;15293898;19;20355;-50
2023/12/23 08:33:05;;;;;;;1.10;0.30;;;;;;;2.15;100.00;97101.78;15289046;19;20018;-49
2023/12/23 08:38:32;;;;;;;0.20;0.20;;;;;;;2.11;100.00;97097.75;15282738;19;20078;-50
2023/12/23 08:43:59;;;;;;;0.35;0.35;;;;;;;2.05;100.00;97083.22;15289617;19;20017;-51
2023/12/23 08:49:24;;;;;;;0.40;0.40;;;;;;;1.98;100.00;97082.09;15293760;19;20018;-51
2023/12/23 08:54:51;;;;;;;0.40;0.40;;;;;;;1.89;100.00;97074.97;15294089;19;20022;-51
2023/12/23 09:00:18;;;;;;;1.77;1.30;;;;;;;1.85;100.00;97067.28;15293688;19;20021;-53
2023/12/23 09:05:42;;;;;;;1.45;0.90;;;;;;;1.80;100.00;97048.28;15290727;19;20017;-50
2023/12/23 09:11:12;;;;;;;1.83;0.95;;;;;;;1.80;100.00;97047.44;15287144;19;20021;-52
2023/12/23 09:16:36;;;;;;;1.85;1.75;;;;;;;1.78;100.00;97047.56;15292368;19;20038;-53
2023/12/23 09:22:01;;;;;;;1.50;1.40;;;;;;;1.79;100.00;97046.59;15288610;19;20329;-50
2023/12/23 09:27:28;;;;;;;1.98;1.73;;;;;;;1.84;100.00;97044.34;15292109;19;20478;-54
2023/12/23 09:32:53;;;;;;;2.85;1.15;;;;;;;1.91;100.00;97028.69;15288066;19;20022;-50
2023/12/23 09:38:17;;;;;;;1.15;0.80;;;;;;;1.92;100.00;97013.59;15288915;19;20111;-51
2023/12/23 09:43:45;;;;;;;1.40;0.70;;;;;;;1.96;100.00;97028.25;15288081;19;20018;-51
2023/12/23 09:49:09;;;;;;;0.70;0.70;;;;;;;2.01;100.00;97007.44;15289822;19;20078;-52
2023/12/23 09:54:36;;;;;;;0.93;0.88;;;;;;;2.08;100.00;96995.25;15285723;19;20015;-51
2023/12/23 10:00:04;;;;;;;1.63;1.00;;;;;;;2.10;100.00;96992.47;15288981;19;20531;-50
2023/12/23 10:05:29;;;;;;;3.15;2.40;;;;;;;2.10;100.00;96982.66;15288219;19;20010;-52
2023/12/23 10:10:54;;;;;;;2.65;1.80;;;;;;;2.11;100.00;96976.38;15284447;19;20035;-52
2023/12/23 10:16:23;;;;;;;2.13;1.73;;;;;;;2.13;100.00;96952.31;15289838;19;20231;-52
2023/12/23 10:21:47;;;;;;;13.27;5.00;;;;;;;2.18;100.00;96949.22;15287197;19;20046;-52
2023/12/23 10:27:13;;;;;;;2.60;2.30;;;;;;;2.27;100.00;96953.69;15284384;19;20017;-51
2023/12/23 10:32:42;;;;;;;1.63;1.50;;;;;;;2.38;100.00;96947.34;15276375;19;20082;-49
2023/12/23 10:38:16;;;;;;;3.28;2.38;;;;;;;2.66;100.00;96969.44;15286900;19;20014;-51
2023/12/23 10:43:42;;;;;;;1.30;1.10;;;;;;;3.09;100.00;96959.13;15278111;19;20010;-50
2023/12/23 10:49:11;;;;;;;1.10;1.08;;;;;;;3.75;100.00;96978.41;15288263;19;20545;-49
2023/12/23 10:54:38;;;;;;;1.23;0.80;;;;;;;4.28;100.00;96987.28;15287822;19;20017;-49
2023/12/23 11:00:02;;;;;;;18.80;15.10;;;;;;;4.69;100.00;96999.16;15285542;19;20073;-50
2023/12/23 11:05:29;;;;;;;1.75;1.65;;;;;;;5.05;100.00;96998.97;15285083;19;20917;-51
2023/12/23 11:10:56;;;;;;;1.00;1.00;;;;;;;5.30;100.00;97047.13;15284153;19;20010;-52
2023/12/23 11:16:21;;;;;;;0.90;0.68;;;;;;;5.41;100.00;97052.16;15277870;19;20014;-48
2023/12/23 11:21:49;;;;;;;0.38;0.38;;;;;;;5.03;100.00;97030.31;15283499;19;20028;-52
2023/12/23 11:27:33;;;;;;;0.50;0.50;;;;;;;4.02;100.00;97019.22;15284317;19;20089;-52
2023/12/23 11:32:58;;;;;;;0.40;0.40;;;;;;;3.28;100.00;97006.06;15279663;19;20663;-50
2023/12/23 11:38:28;;;;;;;0.50;0.50;;;;;;;3.01;100.00;97021.06;15282726;19;20023;-53
2023/12/23 11:43:54;;;;;;;3.07;0.30;;;;;;;2.78;100.00;97036.59;15283341;19;20037;-49
2023/12/23 11:49:19;;;;;;;0.30;0.30;;;;;;;2.61;100.00;97059.47;15293415;19;21662;-50
2023/12/23 11:54:47;;;;;;;0.30;0.30;;;;;;;2.52;100.00;97076.28;15298731;19;20032;-50
2023/12/23 12:00:14;;;;;;;0.30;0.30;;;;;;;2.52;100.00;97094.91;15295464;19;20025;-54
2023/12/23 12:05:46;;;;;;;0.40;0.40;;;;;;;2.57;100.00;97119.22;15296601;19;20479;-52
2023/12/23 12:11:14;;;;;;;0.57;0.30;;;;;;;2.56;100.00;97130.84;15295384;19;20462;-51
2023/12/23 12:16:40;;;;;;;0.30;0.30;;;;;;;2.56;100.00;97144.13;15041082;19;5001061;-54
2023/12/23 12:22:06;;;;;;;0.40;0.40;;;;;;;2.54;100.00;97157.56;15289418;19;20014;-52
2023/12/23 12:27:35;;;;;;;0.30;0.30;;;;;;;2.50;100.00;97160.66;15297940;19;20021;-52
2023/12/23 12:33:00;;;;;;;0.38;0.30;;;;;;;2.45;100.00;97169.06;15292846;19;20345;-52
2023/12/23 12:38:25;;;;;;;0.40;0.40;;;;;;;2.45;100.00;97175.19;15294019;19;20026;-52
2023/12/23 12:43:52;;;;;;;0.43;0.40;;;;;;;2.45;100.00;97177.88;15295327;19;20482;-52
2023/12/23 12:49:18;;;;;;;0.30;0.30;;;;;;;2.46;100.00;97187.53;15296201;19;20531;-51
2023/12/23 12:54:44;;;;;;;0.40;0.40;;;;;;;2.50;100.00;97195.22;15289679;19;20010;-53
2023/12/23 13:00:13;;;;;;;1.38;0.98;;;;;;;2.50;100.00;97201.34;15293338;19;20029;-54
2023/12/23 13:05:44;;;;;;;0.32;0.32;;;;;;;2.49;100.00;97212.16;15292990;19;20014;-56
2023/12/23 13:11:09;;;;;;;0.30;0.30;;;;;;;2.51;100.00;97216.34;15291689;19;20042;-54
2023/12/23 13:16:36;;;;;;;0.70;0.60;;;;;;;2.54;100.00;97217.88;15294134;19;20467;-53
2023/12/23 13:22:05;;;;;;;0.50;0.50;;;;;;;2.55;100.00;97224.88;15294520;19;20070;-49
2023/12/23 13:27:30;;;;;;;2.65;0.70;;;;;;;2.57;100.00;97236.19;15287227;19;20582;-49
2023/12/23 13:32:57;;;;;;;0.60;0.60;;;;;;;2.58;100.00;97248.53;15287476;19;20032;-49
2023/12/23 13:38:24;;;;;;;0.60;0.60;;;;;;;2.59;100.00;97256.34;15289850;19;20015;-49
2023/12/23 13:43:49;;;;;;;2.47;0.73;;;;;;;2.62;100.00;97265.88;15036033;19;5001254;-49
2023/12/23 13:49:17;;;;;;;0.75;0.70;;;;;;;2.64;100.00;97268.38;15289367;19;20085;-52
2023/12/23 13:54:42;;;;;;;1.20;1.10;;;;;;;2.64;100.00;97289.66;15288306;19;20508;-50
2023/12/23 14:00:06;;;;;;;1.75;1.35;;;;;;;2.65;100.00;97294.84;15282592;19;20089;-54
2023/12/23 14:05:34;;;;;;;1.42;1.30;;;;;;;2.66;100.00;97304.50;15286537;19;20010;-52
2023/12/23 14:10:59;;;;;;;3.38;1.35;;;;;;;2.66;100.00;97309.81;15286981;19;20046;-53
2023/12/23 14:16:24;;;;;;;1.50;1.40;;;;;;;2.69;100.00;97328.16;15289372;19;20017;-51
2023/12/23 14:21:51;;;;;;;1.52;1.42;;;;;;;2.73;100.00;97342.00;15285827;19;20028;-51
2023/12/23 14:27:15;;;;;;;2.88;1.30;;;;;;;2.75;100.00;97350.69;15288311;19;20029;-53
2023/12/23 14:32:40;;;;;;;2.00;1.80;;;;;;;2.74;100.00;97357.84;15279837;19;20048;-53
2023/12/23 14:38:08;;;;;;;2.58;2.35;;;;;;;2.78;100.00;97361.88;15286819;19;20017;-50
2023/12/23 14:43:33;;;;;;;3.08;2.53;;;;;;;2.77;100.00;97354.88;15285059;19;20103;-51
2023/12/23 14:48:58;;;;;;;2.55;2.35;;;;;;;2.78;100.00;97358.41;15287817;19;20031;-50
2023/12/23 14:54:25;;;;;;;2.83;2.40;;;;;;;2.80;100.00;97366.22;15285909;19;20085;-51
2023/12/23 14:59:49;;;;;;;2.53;1.92;;;;;;;2.78;100.00;97367.22;15285231;19;20481;-51
2023/12/23 15:05:15;;;;;;;1.75;1.50;;;;;;;2.78;100.00;97380.50;15279470;19;20078;-50
2023/12/23 15:10:42;;;;;;;1.35;1.25;;;;;;;2.78;100.00;97388.50;15284501;19;20031;-51
2023/12/23 15:16:07;;;;;;;1.42;1.30;;;;;;;2.78;100.00;97383.16;15285627;19;20020;-50
2023/12/23 15:21:33;;;;;;;1.50;1.30;;;;;;;2.80;100.00;97395.50;15293933;19;20021;-50
2023/12/23 15:27:00;;;;;;;2.00;1.50;;;;;;;2.82;100.00;97404.19;15301166;19;20022;-51
2023/12/23 15:32:24;;;;;;;3.90;2.40;;;;;;;2.83;100.00;97396.06;15295486;19;20010;-50
2023/12/23 15:37:49;;;;;;;3.53;2.85;;;;;;;2.87;100.00;97404.63;15294312;19;20021;-52
2023/12/23 15:43:16;;;;;;;3.92;2.70;;;;;;;2.88;100.00;97403.66;15294598;19;20017;-57
2023/12/23 15:48:41;;;;;;;3.22;2.53;;;;;;;2.91;100.00;97414.84;15299489;19;20027;-57
2023/12/23 15:54:06;;;;;;;3.65;2.90;;;;;;;2.96;100.00;97410.91;15298823;19;20423;-56
2023/12/23 15:59:33;;;;;;;11.73;3.47;;;;;;;2.97;100.00;97405.47;15295931;19;20078;-56
2023/12/23 16:05:04;;;;;;;8.05;5.18;;;;;;;3.00;100.00;97412.31;15297515;19;20019;-56
2023/12/23 16:10:30;;;;;;;8.00;5.97;;;;;;;3.01;100.00;97424.66;15291639;19;20038;-57
2023/12/23 16:15:57;;;;;;;10.05;6.50;;;;;;;3.02;100.00;97426.34;15297042;19;20040;-56
2023/12/23 16:21:23;;;;;;;9.07;6.90;;;;;;;3.06;100.00;97441.88;15294206;19;20015;-57
2023/12/23 16:26:47;;;;;;;9.50;6.57;;;;;;;3.11;100.00;97436.16;15296776;19;20028;-53
2023/12/23 16:32:14;;;;;;;8.07;5.45;;;;;;;3.16;100.00;97444.56;15293981;19;20014;-57
2023/12/23 16:37:40;;;;;;;5.82;4.50;;;;;;;3.22;100.00;97453.81;15297609;19;20070;-55
2023/12/23 16:43:05;;;;;;;7.97;5.43;;;;;;;3.25;100.00;97472.16;15284452;19;20037;-57
2023/12/23 16:48:32;;;;;;;7.93;5.15;;;;;;;3.32;100.00;97475.97;15296919;19;20364;-58
2023/12/23 16:53:57;;;;;;;9.35;6.00;;;;;;;3.37;100.00;97462.22;15295726;19;20018;-58
2023/12/23 16:59:21;;;;;;;7.10;4.60;;;;;;;3.42;100.00;97467.13;15291510;19;20019;-58
2023/12/23 17:04:48;;;;;;;5.47;4.05;;;;;;;3.60;100.00;97484.09;15293200;19;20499;-58
2023/12/23 17:10:15;;;;;;;5.95;4.38;;;;;;;3.76;100.00;97483.53;15294684;19;20046;-58
2023/12/23 17:15:41;;;;;;;7.55;4.88;;;;;;;3.87;100.00;97490.53;15289510;19;20113;-58
2023/12/23 17:21:08;;;;;;;8.32;5.85;;;;;;;4.00;100.00;97485.75;15292513;19;20021;-58
2023/12/23 17:26:32;;;;;;;5.82;5.20;;;;;;;4.21;100.00;97492.69;15293371;19;20337;-58
2023/12/23 17:31:58;;;;;;;6.13;5.22;;;;;;;4.44;100.00;97501.22;15292116;19;20347;-59
2023/12/23 17:37:26;;;;;;;5.28;4.68;;;;;;;4.68;100.00;97507.00;15292458;19;20010;-57
2023/12/23 17:42:51;;;;;;;3.90;3.22;;;;;;;4.88;100.00;97494.44;15284000;19;20011;-58
2023/12/23 17:48:16;;;;;;;3.28;2.60;;;;;;;5.14;100.00;97489.22;15291925;19;20014;-58
2023/12/23 17:53:50;;;;;;;1.20;1.10;;;;;;;5.67;100.00;97495.59;15287950;19;20023;-60
2023/12/23 17:59:15;;;;;;;2.45;0.50;;;;;;;6.15;100.00;97504.22;15289534;19;20022;-55
2023/12/23 18:04:39;;;;;;;0.40;0.40;;;;;;;6.35;100.00;97504.00;15288870;19;20014;-56
2023/12/23 18:10:15;;;;;;;0.30;0.30;;;;;;;6.48;100.00;97503.59;15291736;19;20017;-56
2023/12/23 18:15:40;;;;;;;0.22;0.22;;;;;;;6.61;100.00;97505.84;15284408;19;20070;-55
2023/12/23 18:21:04;;;;;;;0.22;0.22;;;;;;;6.68;100.00;97496.19;15287893;19;20014;-55
2023/12/23 18:26:32;;;;;;;0.20;0.20;;;;;;;6.70;100.00;97526.31;15289084;19;20018;-56
2023/12/23 18:31:57;;;;;;;0.17;0.17;;;;;;;6.75;100.00;97493.69;15286767;19;20015;-58
2023/12/23 18:37:23;;;;;;;0.20;0.20;;;;;;;6.82;100.00;97536.72;15288898;19;20015;-57
2023/12/23 18:42:50;;;;;;;0.40;0.10;;;;;;;6.82;100.00;97518.00;15283622;19;20028;-56
2023/12/23 18:48:15;;;;;;;0.60;0.30;;;;;;;6.85;100.00;97525.72;15283029;19;20021;-58
2023/12/23 18:53:39;;;;;;;0.30;0.30;;;;;;;6.85;100.00;97520.34;15284300;19;20017;-55
2023/12/23 18:59:06;;;;;;;0.40;0.20;;;;;;;6.85;100.00;97520.34;15286362;19;20010;-58
2023/12/23 19:04:31;;;;;;;0.20;0.20;;;;;;;6.86;100.00;97538.09;15283457;19;20078;-58
2023/12/23 19:10:02;;;;;;;0.90;0.22;;;;;;;6.87;100.00;97545.97;15287413;19;20049;-56
2023/12/23 19:15:29;;;;;;;1.37;0.20;;;;;;;6.89;100.00;97529.72;15284404;19;20056;-57
2023/12/23 19:20:55;;;;;;;1.35;0.30;;;;;;;6.87;100.00;97529.91;15279653;19;20017;-58
2023/12/23 19:26:27;;;;;;;0.10;0.10;;;;;;;6.89;100.00;97521.69;15286660;19;20476;-51
2023/12/23 19:31:55;;;;;;;0.10;0.10;;;;;;;6.91;100.00;97551.84;15285386;19;20034;-56
2023/12/23 19:37:20;;;;;;;0.38;0.30;;;;;;;6.91;100.00;97509.00;15288284;19;20018;-55
2023/12/23 19:42:44;;;;;;;0.32;0.25;;;;;;;6.90;100.00;97512.66;15282691;19;20025;-56
2023/12/23 19:48:12;;;;;;;0.63;0.35;;;;;;;6.90;100.00;97512.66;15287956;19;20015;-54
2023/12/23 19:53:37;;;;;;;0.10;0.10;;;;;;;6.88;100.00;97515.53;15279813;19;20094;-56
2023/12/23 19:59:03;;;;;;;0.15;0.10;;;;;;;6.92;100.00;97505.31;15287186;19;20094;-58
2023/12/23 20:04:31;;;;;;;0.25;0.20;;;;;;;6.94;100.00;97524.75;15287261;19;20021;-55
2023/12/23 20:10:02;;;;;;;0.17;0.17;;;;;;;6.91;100.00;97509.00;15292293;19;20014;-58
2023/12/23 20:15:27;;;;;;;0.30;0.20;;;;;;;6.95;100.00;97521.06;15294675;19;20082;-56
2023/12/23 20:20:54;;;;;;;0.50;0.28;;;;;;;6.95;100.00;97537.13;15294740;19;20280;-56
2023/12/23 20:26:19;;;;;;;0.32;0.28;;;;;;;7.01;100.00;97531.13;15290174;19;20035;-54
2023/12/23 20:31:45;;;;;;;0.22;0.20;;;;;;;7.02;100.00;97529.31;15293120;19;20020;-55
2023/12/23 20:37:12;;;;;;;0.30;0.20;;;;;;;7.04;100.00;97498.69;15294626;19;20095;-56
2023/12/23 20:42:39;;;;;;;0.17;0.17;;;;;;;7.10;100.00;97526.66;15291720;19;20018;-58
2023/12/23 20:48:04;;;;;;;0.40;0.20;;;;;;;7.12;100.00;97527.34;15272191;19;20014;-55
2023/12/23 20:53:31;;;;;;;0.20;0.20;;;;;;;7.17;100.00;97505.41;15289238;19;20523;-55
2023/12/23 20:58:56;;;;;;;0.75;0.28;;;;;;;7.18;100.00;97488.34;15290823;19;20030;-57
2023/12/23 21:04:20;;;;;;;0.20;0.20;;;;;;;7.20;100.00;97487.19;15293782;19;20078;-57
2023/12/23 21:09:55;;;;;;;0.10;0.10;;;;;;;7.22;100.00;97484.34;15292244;19;20040;-56
2023/12/23 21:15:19;;;;;;;0.35;0.10;;;;;;;7.24;100.00;97485.00;15297227;19;20077;-54
2023/12/23 21:20:44;;;;;;;0.30;0.20;;;;;;;7.25;100.00;97468.78;15296047;19;20007;-56
2023/12/23 21:26:11;;;;;;;0.00;0.00;;;;;;;7.29;100.00;97490.72;15296271;19;20014;-55
2023/12/23 21:31:36;;;;;;;0.13;0.10;;;;;;;7.30;100.00;97460.25;15291421;19;20355;-56
2023/12/23 21:37:01;;;;;;;0.20;0.20;;;;;;;7.33;100.00;97473.31;15295816;19;20487;-56
2023/12/23 21:42:28;;;;;;;0.10;0.10;;;;;;;7.31;100.00;97451.22;15293034;19;20024;-57
2023/12/23 21:47:53;;;;;;;0.13;0.10;;;;;;;7.34;100.00;97469.66;15294311;19;20018;-57
2023/12/23 21:53:18;;;;;;;0.10;0.10;;;;;;;7.36;100.00;97459.59;15292031;19;20022;-56
2023/12/23 21:58:47;;;;;;;0.52;0.25;;;;;;;7.39;100.00;97459.25;15296418;19;20018;-56
2023/12/23 22:04:12;;;;;;;0.20;0.20;;;;;;;7.38;100.00;97460.25;15286027;19;20082;-56
2023/12/23 22:09:43;;;;;;;0.60;0.20;;;;;;;7.43;100.00;97477.69;15289200;19;20031;-58
2023/12/23 22:15:11;;;;;;;0.30;0.22;;;;;;;7.44;100.00;97482.88;15293647;19;20014;-55
2023/12/23 22:20:36;;;;;;;1.30;0.20;;;;;;;7.44;100.00;97466.81;15290958;19;20045;-57
2023/12/23 22:26:01;;;;;;;1.00;0.57;;;;;;;7.41;100.00;97461.75;15292211;19;20418;-55
2023/12/23 22:31:28;;;;;;;0.20;0.20;;;;;;;7.36;100.00;97462.25;15288998;19;20021;-52
2023/12/23 22:36:55;;;;;;;0.20;0.20;;;;;;;7.33;100.00;97465.28;15290887;19;20024;-54
2023/12/23 22:42:20;;;;;;;0.30;0.30;;;;;;;7.37;100.00;97493.41;15289769;19;20499;-55
2023/12/23 22:47:47;;;;;;;0.70;0.32;;;;;;;7.42;100.00;97484.06;15289659;19;20046;-59
2023/12/23 22:53:13;;;;;;;1.10;0.30;;;;;;;7.44;100.00;97474.00;15289419;19;20472;-56
2023/12/23 22:58:39;;;;;;;0.85;0.20;;;;;;;7.45;100.00;97478.38;15291372;19;20010;-51
2023/12/23 23:04:06;;;;;;;0.20;0.20;;;;;;;7.47;100.00;97484.38;15289043;19;20034;-54
2023/12/23 23:09:31;;;;;;;0.60;0.20;;;;;;;7.56;100.00;97472.69;15281070;19;20832;-52
2023/12/23 23:14:55;;;;;;;0.20;0.20;;;;;;;7.61;100.00;97473.03;15289563;19;20018;-55
2023/12/23 23:20:23;;;;;;;0.93;0.28;;;;;;;7.63;100.00;97462.16;15291098;19;20028;-56
2023/12/23 23:25:47;;;;;;;2.72;0.20;;;;;;;7.65;100.00;97466.34;15289542;19;20026;-54
2023/12/23 23:31:14;;;;;;;0.85;0.28;;;;;;;7.64;100.00;97471.88;15287050;19;20014;-57
2023/12/23 23:36:43;;;;;;;0.65;0.28;;;;;;;7.65;100.00;97497.66;15286360;19;20478;-56
2023/12/23 23:42:08;;;;;;;0.52;0.28;;;;;;;7.60;100.00;97465.97;15285887;19;20423;-56
2023/12/23 23:47:32;;;;;;;1.73;0.20;;;;;;;7.63;100.00;97480.91;15303341;19;20014;-55
2023/12/23 23:53:00;;;;;;;0.32;0.20;;;;;;;7.67;100.00;97450.94;15297521;19;20074;-57
2023/12/23 23:58:25;;;;;;;0.65;0.20;;;;;;;7.69;100.00;97448.91;15300406;19;20033;-56
